Time;durP1;ratioP1;P1;durP2;ratioP2;P2;SDS_P1;SDS_P2;PMS_P1;PMS_P2;Temp;Humidity;BMP_temperature;BMP_pressure;BME280_temperature;BME280_humidity;BME280_pressure;Samples;Min_cycle;Max_cycle;Signal;HPM_P1;HPM_P2
2023/10/07 00:02:51;;;;;;;13.57;4.32;;;17.40;99.90;;;;;;6263998;22;20019;-83
2023/10/07 00:05:20;;;;;;;14.02;3.67;;;17.40;99.90;;;;;;6235366;22;20014;-83
2023/10/07 00:07:46;;;;;;;12.20;4.38;;;17.50;99.90;;;;;;6234951;22;20364;-83
2023/10/07 00:10:18;;;;;;;21.25;4.32;;;17.40;99.90;;;;;;6236297;22;20015;-83
2023/10/07 00:12:45;;;;;;;15.80;3.78;;;17.50;99.90;;;;;;6234314;22;20016;-83
2023/10/07 00:15:11;;;;;;;10.05;3.88;;;17.50;99.90;;;;;;6261388;22;20020;-83
2023/10/07 00:17:42;;;;;;;19.48;4.72;;;17.50;99.90;;;;;;6235180;22;20074;-83
2023/10/07 00:20:12;;;;;;;9.80;4.20;;;17.50;99.90;;;;;;6238718;22;20778;-83
2023/10/07 00:22:42;;;;;;;9.75;4.20;;;17.50;99.90;;;;;;6237444;22;20022;-83
2023/10/07 00:25:12;;;;;;;16.02;4.30;;;17.50;99.90;;;;;;6238418;22;20011;-83
2023/10/07 00:27:38;;;;;;;13.88;4.55;;;17.60;99.90;;;;;;6238076;22;20090;-83
2023/10/07 00:30:13;;;;;;;14.73;3.95;;;17.60;99.90;;;;;;6264886;22;20051;-83
2023/10/07 00:32:39;;;;;;;11.20;4.05;;;17.60;99.90;;;;;;6238320;22;20015;-83
2023/10/07 00:35:06;;;;;;;14.05;4.30;;;17.60;99.90;;;;;;6238612;22;20073;-84
2023/10/07 00:37:37;;;;;;;13.07;4.57;;;17.60;99.90;;;;;;6262677;22;20032;-82
2023/10/07 00:40:30;;;;;;;13.82;4.15;;;17.60;99.90;;;;;;6239110;22;20016;-83
2023/10/07 00:42:57;;;;;;;9.35;3.60;;;17.60;99.90;;;;;;6237219;22;20022;-83
2023/10/07 00:45:24;;;;;;;13.80;3.90;;;17.60;99.90;;;;;;6238491;22;20306;-82
2023/10/07 00:47:52;;;;;;;10.80;4.00;;;17.60;99.90;;;;;;6237781;22;20012;-83
2023/10/07 00:50:20;;;;;;;16.77;4.70;;;17.50;99.90;;;;;;6238791;22;20364;-83
2023/10/07 00:55:31;;;;;;;10.43;4.32;;;17.40;99.90;;;;;;6264322;22;20090;-83
2023/10/07 01:00:46;;;;;;;17.42;4.95;;;17.40;99.90;;;;;;6263538;22;20015;-82
2023/10/07 01:08:44;;;;;;;16.33;4.38;;;17.20;99.90;;;;;;6261821;22;20022;-82
2023/10/07 01:11:19;;;;;;;14.95;4.55;;;17.00;99.90;;;;;;6238258;22;20018;-82
2023/10/07 01:13:50;;;;;;;14.60;4.63;;;17.10;99.90;;;;;;6236752;22;20016;-82
2023/10/07 01:16:41;;;;;;;14.00;5.00;;;17.00;99.90;;;;;;6264000;22;20016;-82
2023/10/07 01:21:46;;;;;;;15.40;5.05;;;17.00;99.90;;;;;;6263896;22;20058;-83
2023/10/07 01:24:13;;;;;;;14.77;5.50;;;17.00;99.90;;;;;;6236513;22;20099;-83
2023/10/07 01:26:44;;;;;;;15.88;5.15;;;16.90;99.90;;;;;;6236988;22;20051;-82
2023/10/07 01:29:15;;;;;;;13.13;4.80;;;17.00;99.90;;;;;;6238373;22;20007;-83
2023/10/07 01:32:11;;;;;;;12.82;4.82;;;17.00;99.90;;;;;;6237244;22;20580;-83
2023/10/07 01:34:38;;;;;;;15.80;5.25;;;17.00;99.90;;;;;;6238055;22;20057;-83
2023/10/07 01:37:05;;;;;;;13.25;4.72;;;17.00;99.90;;;;;;6236467;22;20130;-82
2023/10/07 01:39:40;;;;;;;14.10;4.45;;;17.00;99.90;;;;;;6238420;22;20011;-82
2023/10/07 01:42:23;;;;;;;19.33;4.78;;;17.10;99.90;;;;;;6237176;22;20018;-82
2023/10/07 01:44:56;;;;;;;14.60;4.57;;;17.10;99.90;;;;;;6237920;22;20420;-82
2023/10/07 01:47:24;;;;;;;14.18;4.53;;;17.10;99.90;;;;;;6236736;22;20027;-83
2023/10/07 01:49:53;;;;;;;13.02;4.45;;;17.10;99.90;;;;;;6237605;22;20090;-82
2023/10/07 01:52:21;;;;;;;12.27;4.25;;;17.10;99.90;;;;;;6236845;22;20131;-84
2023/10/07 01:54:48;;;;;;;19.50;5.53;;;17.10;99.90;;;;;;6263289;22;20022;-83
2023/10/07 01:57:17;;;;;;;18.75;4.80;;;17.10;99.90;;;;;;6237473;22;20023;-83
2023/10/07 01:59:42;;;;;;;10.77;3.92;;;17.20;99.90;;;;;;6238154;22;20012;-82
2023/10/07 02:02:11;;;;;;;14.00;4.70;;;17.20;99.90;;;;;;6237598;22;20011;-83
2023/10/07 02:04:37;;;;;;;12.57;3.90;;;17.20;99.90;;;;;;6237690;22;20015;-83
2023/10/07 02:07:02;;;;;;;13.10;4.28;;;17.20;99.90;;;;;;6261394;22;20173;-83
2023/10/07 02:09:35;;;;;;;9.80;4.20;;;17.20;99.90;;;;;;6237018;22;20395;-83
2023/10/07 02:12:01;;;;;;;14.25;3.85;;;17.30;99.90;;;;;;6232797;22;20636;-83
2023/10/07 02:14:28;;;;;;;15.75;4.13;;;17.30;99.90;;;;;;6261787;22;20065;-83
2023/10/07 02:16:59;;;;;;;9.85;3.65;;;17.30;99.90;;;;;;6233972;22;20454;-83
2023/10/07 02:19:28;;;;;;;10.50;4.07;;;17.40;99.90;;;;;;6235427;22;20012;-83
2023/10/07 02:22:03;;;;;;;11.68;3.55;;;17.40;99.90;;;;;;6234294;22;20022;-83
2023/10/07 02:24:34;;;;;;;14.30;4.13;;;17.40;99.90;;;;;;6235322;22;20012;-83
2023/10/07 02:27:18;;;;;;;12.70;3.88;;;17.40;99.90;;;;;;6258715;22;20016;-82
2023/10/07 02:29:44;;;;;;;14.10;4.47;;;17.50;99.90;;;;;;6235790;22;20024;-83
2023/10/07 02:32:31;;;;;;;13.25;4.20;;;17.50;99.90;;;;;;6233255;22;20240;-83
2023/10/07 02:34:59;;;;;;;13.10;3.88;;;17.50;99.90;;;;;;6234837;22;20348;-83
2023/10/07 02:37:29;;;;;;;15.30;4.20;;;17.50;99.90;;;;;;6233156;22;20540;-83
2023/10/07 02:39:56;;;;;;;7.25;3.50;;;17.50;99.90;;;;;;6234938;22;20034;-82
2023/10/07 02:42:28;;;;;;;14.70;4.35;;;17.50;99.90;;;;;;6259832;22;20480;-83
2023/10/07 02:47:39;;;;;;;12.13;3.58;;;17.60;99.90;;;;;;6260053;22;20910;-83
2023/10/07 02:50:07;;;;;;;14.48;3.88;;;17.50;99.90;;;;;;6235223;22;20053;-83
2023/10/07 02:52:37;;;;;;;13.65;3.90;;;17.60;99.90;;;;;;6233877;22;20090;-83
2023/10/07 02:57:55;;;;;;;9.02;3.83;;;17.60;99.90;;;;;;6259093;22;20541;-83
2023/10/07 03:00:36;;;;;;;13.30;3.67;;;17.60;99.90;;;;;;6258601;22;20046;-83
2023/10/07 03:03:19;;;;;;;13.40;3.67;;;17.60;99.90;;;;;;6233366;22;20453;-83
2023/10/07 03:05:46;;;;;;;11.48;3.70;;;17.60;99.90;;;;;;6237213;22;20011;-83
2023/10/07 03:08:19;;;;;;;12.18;3.67;;;17.60;99.90;;;;;;6235398;22;20015;-83
2023/10/07 03:11:03;;;;;;;15.77;4.55;;;17.60;99.90;;;;;;6236911;22;20336;-83
2023/10/07 03:13:30;;;;;;;12.07;4.00;;;17.60;99.90;;;;;;6235953;22;20022;-82
2023/10/07 03:18:39;;;;;;;15.05;4.00;;;17.60;99.90;;;;;;6261535;22;20456;-82
2023/10/07 03:21:11;;;;;;;12.52;4.03;;;17.60;99.90;;;;;;6237046;22;20050;-83
2023/10/07 03:23:45;;;;;;;14.55;3.67;;;17.60;99.90;;;;;;6235594;22;20022;-84
2023/10/07 03:26:20;;;;;;;11.00;3.50;;;17.60;99.90;;;;;;6235224;22;20016;-83
2023/10/07 03:28:53;;;;;;;13.80;3.70;;;17.70;99.90;;;;;;6260491;22;20008;-82
2023/10/07 03:31:35;;;;;;;7.47;3.25;;;17.70;99.90;;;;;;6236145;22;20016;-83
2023/10/07 03:34:09;;;;;;;11.55;3.97;;;17.70;99.90;;;;;;6235503;22;20077;-83
2023/10/07 03:36:41;;;;;;;8.38;3.25;;;17.60;99.90;;;;;;6235310;22;20110;-83
2023/10/07 03:41:51;;;;;;;11.27;3.08;;;17.60;99.90;;;;;;6260706;22;20077;-83
2023/10/07 03:44:19;;;;;;;10.52;3.72;;;17.60;99.90;;;;;;6237255;22;20093;-83
2023/10/07 03:46:47;;;;;;;11.95;3.60;;;17.70;99.90;;;;;;6260241;22;20068;-84
2023/10/07 03:49:15;;;;;;;7.78;3.38;;;17.60;99.90;;;;;;6235654;22;20746;-83
2023/10/07 03:51:42;;;;;;;12.30;4.85;;;17.70;99.90;;;;;;6235446;22;20077;-83
2023/10/07 03:54:12;;;;;;;12.38;3.45;;;17.70;99.90;;;;;;6235308;22;20593;-82
2023/10/07 03:56:38;;;;;;;14.63;3.88;;;17.60;99.90;;;;;;6235471;22;20026;-83
2023/10/07 03:59:07;;;;;;;14.32;4.13;;;17.60;99.90;;;;;;6261386;22;20019;-82
2023/10/07 04:01:33;;;;;;;14.68;3.42;;;17.60;99.90;;;;;;6234794;22;20011;-83
2023/10/07 04:03:59;;;;;;;11.35;3.80;;;17.60;99.90;;;;;;6233579;22;20122;-83
2023/10/07 04:06:31;;;;;;;15.27;4.20;;;17.60;99.90;;;;;;6234600;22;20100;-83
2023/10/07 04:09:07;;;;;;;14.90;3.97;;;17.60;99.90;;;;;;6256630;22;20015;-82
2023/10/07 04:11:38;;;;;;;15.00;4.10;;;17.60;99.90;;;;;;6259270;22;20497;-83
2023/10/07 04:16:50;;;;;;;10.32;3.60;;;17.60;99.90;;;;;;6258845;22;20059;-83
2023/10/07 04:21:42;;;;;;;12.73;3.65;;;17.60;99.90;;;;;;6259048;22;20016;-83
2023/10/07 04:24:12;;;;;;;11.90;4.05;;;17.60;99.90;;;;;;6234156;22;20023;-83
2023/10/07 04:26:51;;;;;;;13.05;4.22;;;17.60;99.90;;;;;;6233631;22;20016;-83
2023/10/07 04:29:18;;;;;;;11.40;3.53;;;17.70;99.90;;;;;;6233479;22;20011;-83
2023/10/07 04:31:47;;;;;;;12.77;4.00;;;17.60;99.90;;;;;;6235962;22;20077;-83
2023/10/07 04:34:17;;;;;;;11.10;4.35;;;17.60;99.90;;;;;;6234425;22;20007;-83
2023/10/07 04:39:28;;;;;;;9.50;3.80;;;17.70;99.90;;;;;;6261460;22;20019;-83
2023/10/07 04:42:03;;;;;;;11.23;3.53;;;17.60;99.90;;;;;;6260198;22;20087;-83
2023/10/07 04:47:29;;;;;;;12.18;3.53;;;17.70;99.90;;;;;;6262170;22;20081;-83
2023/10/07 04:52:30;;;;;;;9.43;3.47;;;17.70;99.90;;;;;;6262548;22;20023;-83
2023/10/07 04:55:00;;;;;;;10.50;4.20;;;17.60;99.90;;;;;;6263043;22;20061;-83
2023/10/07 05:00:17;;;;;;;11.02;3.55;;;17.60;99.90;;;;;;6263605;22;20058;-83
2023/10/07 05:02:48;;;;;;;14.60;3.70;;;17.60;99.90;;;;;;6238009;22;20031;-83
2023/10/07 05:05:14;;;;;;;9.80;3.70;;;17.60;99.90;;;;;;6238166;22;20007;-83
2023/10/07 05:07:43;;;;;;;11.32;3.38;;;17.60;99.90;;;;;;6262287;22;20305;-83
2023/10/07 05:10:09;;;;;;;10.88;3.28;;;17.60;99.90;;;;;;6238009;22;20105;-83
2023/10/07 05:12:35;;;;;;;11.23;3.65;;;17.60;99.90;;;;;;6236092;22;20254;-82
2023/10/07 05:15:00;;;;;;;10.80;3.70;;;17.60;99.90;;;;;;6238568;22;20510;-83
2023/10/07 05:17:29;;;;;;;10.43;3.08;;;17.60;99.90;;;;;;6263176;22;20471;-83
2023/10/07 05:19:58;;;;;;;9.60;3.28;;;17.60;99.90;;;;;;6262827;22;20007;-83
2023/10/07 05:22:24;;;;;;;14.40;3.42;;;17.70;99.90;;;;;;6237036;22;20011;-83
2023/10/07 05:24:56;;;;;;;9.02;2.90;;;17.60;99.90;;;;;;6262749;22;20038;-82
2023/10/07 05:27:23;;;;;;;9.20;3.30;;;17.60;99.90;;;;;;6236173;22;20076;-83
2023/10/07 05:29:49;;;;;;;11.43;3.60;;;17.50;99.90;;;;;;6263192;22;20034;-83
2023/10/07 05:32:17;;;;;;;10.32;3.15;;;17.60;99.90;;;;;;6237531;22;20022;-83
2023/10/07 05:34:45;;;;;;;9.25;3.17;;;17.50;99.90;;;;;;6262867;22;20214;-83
2023/10/07 05:37:11;;;;;;;12.57;3.47;;;17.60;99.90;;;;;;6235591;22;20039;-82
2023/10/07 05:39:38;;;;;;;11.10;3.05;;;17.60;99.90;;;;;;6236862;22;20047;-82
2023/10/07 05:42:06;;;;;;;7.50;2.83;;;17.60;99.90;;;;;;6236599;22;20507;-82
2023/10/07 05:44:32;;;;;;;15.35;2.80;;;17.60;99.90;;;;;;6237803;22;20387;-83
2023/10/07 05:47:02;;;;;;;8.43;2.78;;;17.60;99.90;;;;;;6262111;22;20120;-82
2023/10/07 05:49:31;;;;;;;10.25;3.17;;;17.50;99.90;;;;;;6236704;22;20100;-82
2023/10/07 05:51:58;;;;;;;10.57;3.67;;;17.60;99.90;;;;;;6236309;22;20230;-82
2023/10/07 05:54:24;;;;;;;8.82;3.30;;;17.50;99.90;;;;;;6237153;22;20020;-82
2023/10/07 05:56:50;;;;;;;8.35;3.00;;;17.50;99.90;;;;;;6236016;22;20449;-82
2023/10/07 05:59:15;;;;;;;10.05;3.10;;;17.50;99.90;;;;;;6261936;22;20532;-82
2023/10/07 06:01:41;;;;;;;8.82;3.00;;;17.50;99.90;;;;;;6261853;22;20453;-83
2023/10/07 06:04:07;;;;;;;11.40;3.40;;;17.50;99.90;;;;;;6237404;22;20073;-82
2023/10/07 06:06:33;;;;;;;8.60;3.53;;;17.40;99.90;;;;;;6237289;22;20551;-82
2023/10/07 06:09:03;;;;;;;6.97;2.90;;;17.40;99.90;;;;;;6236044;22;20024;-82
2023/10/07 06:11:32;;;;;;;8.32;3.30;;;17.30;99.90;;;;;;6237158;22;20015;-82
2023/10/07 06:13:59;;;;;;;10.73;3.58;;;17.30;99.90;;;;;;6235818;22;20012;-83
2023/10/07 06:16:24;;;;;;;9.98;3.63;;;17.30;99.90;;;;;;6236837;22;20015;-82
2023/10/07 06:18:50;;;;;;;11.88;3.58;;;17.30;99.90;;;;;;6235650;22;20382;-82
2023/10/07 06:21:40;;;;;;;14.82;4.03;;;17.20;99.90;;;;;;6236817;22;20018;-82
2023/10/07 06:24:07;;;;;;;8.95;3.50;;;17.20;99.90;;;;;;6260380;22;20396;-82
2023/10/07 06:26:32;;;;;;;9.82;3.40;;;17.20;99.90;;;;;;6236799;22;20014;-82
2023/10/07 06:29:05;;;;;;;11.20;3.45;;;17.20;99.90;;;;;;6236921;22;20433;-83
2023/10/07 06:31:35;;;;;;;12.15;3.65;;;17.20;99.90;;;;;;6237006;22;20016;-82
2023/10/07 06:34:11;;;;;;;8.93;2.95;;;17.20;99.90;;;;;;6237347;22;20302;-82
2023/10/07 06:36:40;;;;;;;8.73;3.03;;;17.20;99.90;;;;;;6236327;22;20115;-82
2023/10/07 06:39:07;;;;;;;9.93;3.28;;;17.20;99.90;;;;;;6262195;22;20090;-82
2023/10/07 06:41:34;;;;;;;11.32;3.13;;;17.20;99.90;;;;;;6236275;22;20008;-82
2023/10/07 06:44:02;;;;;;;13.88;3.42;;;17.30;99.90;;;;;;6235814;22;20457;-82
2023/10/07 06:46:31;;;;;;;13.55;3.15;;;17.30;99.90;;;;;;6236142;22;20075;-82
2023/10/07 06:48:56;;;;;;;10.95;3.85;;;17.30;99.90;;;;;;6261121;22;20358;-82
2023/10/07 06:51:29;;;;;;;11.40;4.15;;;17.30;99.90;;;;;;6236419;22;20050;-82
2023/10/07 06:53:58;;;;;;;11.75;3.30;;;17.40;99.90;;;;;;6235345;22;20016;-82
2023/10/07 06:56:26;;;;;;;13.50;3.47;;;17.40;99.90;;;;;;6212578;22;20019;-82
2023/10/07 06:58:59;;;;;;;8.25;3.17;;;17.40;99.90;;;;;;6261710;22;20015;-82
2023/10/07 07:04:10;;;;;;;8.73;3.15;;;17.40;99.90;;;;;;6261725;22;20019;-82
2023/10/07 07:06:44;;;;;;;13.32;3.85;;;17.40;99.90;;;;;;6261910;22;20050;-82
2023/10/07 07:12:03;;;;;;;13.18;3.00;;;17.50;99.90;;;;;;6261043;22;20527;-82
2023/10/07 07:14:30;;;;;;;15.02;3.10;;;17.60;99.90;;;;;;6262111;22;20091;-82
2023/10/07 07:17:29;;;;;;;10.73;3.30;;;17.60;99.90;;;;;;6236004;22;20015;-82
2023/10/07 07:22:33;;;;;;;9.30;3.05;;;17.80;99.90;;;;;;6260708;22;20069;-83
2023/10/07 07:25:04;;;;;;;9.20;2.90;;;17.80;99.90;;;;;;6261418;22;20091;-82
2023/10/07 07:27:33;;;;;;;9.52;2.90;;;17.80;99.90;;;;;;6234787;22;20027;-83
2023/10/07 07:30:03;;;;;;;11.30;3.33;;;17.80;99.90;;;;;;6236049;22;20019;-82
2023/10/07 07:32:33;;;;;;;14.00;2.78;;;17.70;99.90;;;;;;6235237;22;20026;-82
2023/10/07 07:35:05;;;;;;;6.55;3.15;;;17.70;99.90;;;;;;6261174;22;20022;-82
2023/10/07 07:37:33;;;;;;;13.85;3.20;;;17.80;99.90;;;;;;6235530;22;20090;-82
2023/10/07 07:40:35;;;;;;;9.20;2.80;;;17.80;99.90;;;;;;6236573;22;20387;-82
2023/10/07 07:42:55;;;;;;;10.63;2.90;;;17.90;99.90;;;;;;6260171;22;20454;-83
2023/10/07 07:45:27;;;;;;;10.77;3.50;;;17.90;99.90;;;;;;6235941;22;20043;-83
2023/10/07 07:47:56;;;;;;;11.73;3.20;;;18.10;99.90;;;;;;6236272;22;20016;-83
2023/10/07 07:50:22;;;;;;;8.98;3.15;;;18.10;99.90;;;;;;6235329;22;20327;-83
2023/10/07 07:52:49;;;;;;;7.97;2.92;;;18.10;99.90;;;;;;6233649;22;20513;-84
2023/10/07 07:55:18;;;;;;;10.48;2.88;;;18.20;99.90;;;;;;6236479;22;20311;-83
2023/10/07 07:57:44;;;;;;;10.27;3.22;;;18.20;99.90;;;;;;6234665;22;20062;-83
2023/10/07 08:00:22;;;;;;;10.63;3.38;;;18.20;99.90;;;;;;6236906;22;20011;-83
2023/10/07 08:02:52;;;;;;;7.03;3.20;;;18.30;99.90;;;;;;6235807;22;20095;-83
2023/10/07 08:05:17;;;;;;;8.82;3.00;;;18.30;99.90;;;;;;6235059;22;20014;-83
2023/10/07 08:07:44;;;;;;;8.48;2.78;;;18.30;99.90;;;;;;6258900;22;20024;-83
2023/10/07 08:10:13;;;;;;;10.90;3.30;;;18.40;99.90;;;;;;6235059;22;20035;-83
2023/10/07 08:12:39;;;;;;;9.50;3.53;;;18.40;99.90;;;;;;6234089;22;20521;-83
2023/10/07 08:17:45;;;;;;;12.15;3.15;;;18.40;99.90;;;;;;6260109;22;20147;-83
2023/10/07 08:20:11;;;;;;;9.15;3.03;;;18.40;99.90;;;;;;6259489;22;20012;-83
2023/10/07 08:22:45;;;;;;;11.70;2.97;;;18.40;99.90;;;;;;6261772;22;20007;-83
2023/10/07 08:25:25;;;;;;;8.35;3.00;;;18.40;99.90;;;;;;6237581;22;20012;-83
2023/10/07 08:27:52;;;;;;;10.57;3.42;;;18.50;99.90;;;;;;6262364;22;20015;-83
2023/10/07 08:33:05;;;;;;;8.27;2.90;;;18.60;99.90;;;;;;6263469;22;20023;-83
2023/10/07 08:35:34;;;;;;;7.45;2.90;;;18.60;99.90;;;;;;6237777;22;20099;-83
2023/10/07 08:38:02;;;;;;;8.52;3.03;;;18.60;99.90;;;;;;6235109;22;20081;-83
2023/10/07 08:40:28;;;;;;;8.95;2.85;;;18.70;99.90;;;;;;6237125;22;20252;-84
2023/10/07 08:42:58;;;;;;;11.60;3.30;;;18.50;99.90;;;;;;6244231;22;20062;-83
2023/10/07 08:45:28;;;;;;;7.55;2.85;;;18.70;99.90;;;;;;6261182;22;20025;-83
2023/10/07 08:48:08;;;;;;;8.77;3.22;;;18.60;99.90;;;;;;6261930;22;20073;-83
2023/10/07 08:50:43;;;;;;;10.52;3.05;;;18.60;99.90;;;;;;6261551;22;20020;-83
2023/10/07 08:53:11;;;;;;;5.40;2.97;;;18.70;99.90;;;;;;6235159;22;20024;-83
2023/10/07 08:55:39;;;;;;;11.20;2.90;;;18.70;99.90;;;;;;6262336;22;20943;-83
2023/10/07 08:58:11;;;;;;;9.75;3.05;;;18.70;99.90;;;;;;6236036;22;20047;-83
2023/10/07 09:00:45;;;;;;;12.50;3.50;;;18.60;99.90;;;;;;6262702;22;20014;-83
2023/10/07 09:03:15;;;;;;;9.25;2.83;;;18.60;99.90;;;;;;6236760;22;20043;-83
2023/10/07 09:05:43;;;;;;;12.00;3.65;;;18.50;99.90;;;;;;6236618;22;20015;-83
2023/10/07 09:08:11;;;;;;;10.82;3.15;;;18.50;99.90;;;;;;6235127;22;20251;-83
2023/10/07 09:10:38;;;;;;;10.73;2.90;;;18.50;99.90;;;;;;6237792;22;20449;-82
2023/10/07 09:13:04;;;;;;;9.80;3.17;;;18.60;99.90;;;;;;6236071;22;20023;-83
2023/10/07 09:15:35;;;;;;;7.22;3.28;;;18.70;99.90;;;;;;6262442;22;20016;-82
2023/10/07 09:18:10;;;;;;;8.57;2.80;;;18.70;99.90;;;;;;6261620;22;20496;-82
2023/10/07 09:20:45;;;;;;;10.80;3.00;;;18.70;99.90;;;;;;6236321;22;20085;-83
2023/10/07 09:23:20;;;;;;;8.65;2.88;;;18.80;99.90;;;;;;6234985;22;20019;-84
2023/10/07 09:25:50;;;;;;;9.63;3.45;;;18.70;99.90;;;;;;6236383;22;20093;-83
2023/10/07 09:28:38;;;;;;;12.88;3.70;;;18.80;99.90;;;;;;6236372;22;20355;-83
2023/10/07 09:31:06;;;;;;;9.27;3.10;;;18.80;99.90;;;;;;6262102;22;20050;-83
2023/10/07 09:33:38;;;;;;;10.55;3.30;;;18.80;99.90;;;;;;6261581;22;20081;-82
2023/10/07 09:36:23;;;;;;;11.63;3.55;;;18.70;99.90;;;;;;6237642;22;20041;-83
2023/10/07 09:38:49;;;;;;;12.43;3.70;;;18.80;99.90;;;;;;6235899;22;20706;-83
2023/10/07 09:43:48;;;;;;;10.63;3.50;;;18.70;99.90;;;;;;6261892;22;20019;-83
2023/10/07 09:46:27;;;;;;;11.90;3.53;;;18.60;99.90;;;;;;6236162;22;20151;-83
2023/10/07 09:48:57;;;;;;;10.95;3.60;;;18.70;99.90;;;;;;6236353;22;20016;-83
2023/10/07 09:51:28;;;;;;;11.10;3.38;;;18.60;99.90;;;;;;6262883;22;20015;-83
2023/10/07 09:53:57;;;;;;;9.35;3.67;;;18.60;99.90;;;;;;6261150;22;20087;-83
2023/10/07 09:56:24;;;;;;;11.25;3.85;;;18.60;99.90;;;;;;6236535;22;20012;-83
2023/10/07 09:59:22;;;;;;;13.05;3.80;;;18.60;99.90;;;;;;6236971;22;20562;-83
2023/10/07 10:02:25;;;;;;;11.15;3.15;;;18.60;99.90;;;;;;6262437;22;20034;-83
2023/10/07 10:05:35;;;;;;;12.50;3.47;;;18.60;99.90;;;;;;6236930;22;20134;-83
2023/10/07 10:08:27;;;;;;;12.60;3.70;;;18.70;99.90;;;;;;6235788;22;20428;-83
2023/10/07 10:10:57;;;;;;;8.13;2.78;;;18.80;99.90;;;;;;6263239;22;20069;-83
2023/10/07 10:16:14;;;;;;;9.30;3.40;;;19.10;99.90;;;;;;6262451;22;20297;-83
2023/10/07 10:18:53;;;;;;;13.23;3.22;;;19.10;99.90;;;;;;6236023;22;19922;-83
2023/10/07 10:21:23;;;;;;;5.95;3.30;;;19.20;99.90;;;;;;6262897;22;20008;-83
2023/10/07 10:23:51;;;;;;;7.53;3.05;;;19.40;99.90;;;;;;6260771;22;20012;-83
2023/10/07 10:26:21;;;;;;;15.60;3.95;;;19.30;99.90;;;;;;6236575;22;20461;-83
2023/10/07 10:29:00;;;;;;;13.20;3.72;;;19.50;99.90;;;;;;6261898;22;20007;-83
2023/10/07 10:31:34;;;;;;;12.57;3.00;;;19.30;99.90;;;;;;6235958;22;20015;-83
2023/10/07 10:34:05;;;;;;;11.57;3.58;;;19.20;99.90;;;;;;6236611;22;20015;-83
2023/10/07 10:36:36;;;;;;;13.27;3.53;;;19.10;99.90;;;;;;6236455;22;20026;-83
2023/10/07 10:39:05;;;;;;;11.48;3.60;;;19.20;99.90;;;;;;6235680;22;20354;-83
2023/10/07 10:41:32;;;;;;;8.05;3.38;;;19.10;99.90;;;;;;6261891;22;20499;-83
2023/10/07 10:44:10;;;;;;;9.25;3.40;;;19.00;99.90;;;;;;6261021;22;20015;-83
2023/10/07 10:46:52;;;;;;;10.40;3.70;;;19.00;99.90;;;;;;6236969;22;20020;-83
2023/10/07 10:49:20;;;;;;;7.70;3.13;;;19.20;99.90;;;;;;6261715;22;20098;-84
2023/10/07 10:51:48;;;;;;;10.07;2.83;;;19.30;99.90;;;;;;6235960;22;20012;-83
2023/10/07 10:54:15;;;;;;;9.55;3.20;;;19.40;99.90;;;;;;6236178;22;20016;-83
2023/10/07 10:56:48;;;;;;;7.57;3.15;;;19.60;99.90;;;;;;6236242;22;20298;-83
2023/10/07 10:59:18;;;;;;;9.15;3.28;;;19.60;99.90;;;;;;6236946;22;20396;-83
2023/10/07 11:01:49;;;;;;;11.43;4.00;;;19.50;99.90;;;;;;6236217;22;20047;-83
2023/10/07 11:04:19;;;;;;;11.65;3.95;;;19.50;99.90;;;;;;6236414;22;20038;-83
2023/10/07 11:06:50;;;;;;;9.75;3.47;;;19.40;99.90;;;;;;6235447;22;20011;-83
2023/10/07 11:09:18;;;;;;;11.85;3.17;;;19.50;99.90;;;;;;6236161;22;20016;-83
2023/10/07 11:11:48;;;;;;;9.10;3.55;;;19.30;99.90;;;;;;6235375;22;20022;-83
2023/10/07 11:14:20;;;;;;;8.85;3.28;;;19.40;99.90;;;;;;6236936;22;20015;-83
2023/10/07 11:16:46;;;;;;;7.55;3.30;;;19.30;99.90;;;;;;6235945;22;20095;-83
2023/10/07 11:19:14;;;;;;;8.23;2.97;;;19.20;99.90;;;;;;6236098;22;20051;-83
2023/10/07 11:21:48;;;;;;;12.80;3.58;;;19.30;99.90;;;;;;6235831;22;20043;-83
2023/10/07 11:24:30;;;;;;;9.43;3.28;;;19.20;99.90;;;;;;6236315;22;20019;-83
2023/10/07 11:26:59;;;;;;;9.35;2.90;;;19.00;99.90;;;;;;6235077;22;20109;-83
2023/10/07 11:29:33;;;;;;;7.90;3.03;;;18.90;99.90;;;;;;6236293;22;20015;-84
2023/10/07 11:32:04;;;;;;;9.10;3.75;;;18.80;99.90;;;;;;6235700;22;20084;-84
2023/10/07 11:34:32;;;;;;;14.23;4.15;;;18.90;99.90;;;;;;6235858;22;20115;-83
2023/10/07 11:37:09;;;;;;;10.45;3.38;;;18.90;99.90;;;;;;6235306;22;20137;-83
2023/10/07 11:39:47;;;;;;;11.45;3.78;;;18.90;99.90;;;;;;6235939;22;20437;-83
2023/10/07 11:42:18;;;;;;;11.82;3.80;;;18.80;99.90;;;;;;6234509;22;20019;-83
2023/10/07 11:44:49;;;;;;;14.82;3.55;;;18.80;99.90;;;;;;6235950;22;20357;-83
2023/10/07 11:47:16;;;;;;;12.65;3.75;;;18.90;99.90;;;;;;6234903;22;20449;-84
2023/10/07 11:49:46;;;;;;;10.52;3.83;;;19.00;99.90;;;;;;6235597;22;20245;-83
2023/10/07 11:52:12;;;;;;;9.38;3.70;;;19.00;99.90;;;;;;6235198;22;20023;-83
2023/10/07 11:54:39;;;;;;;8.63;3.42;;;19.10;99.90;;;;;;6210267;22;20016;-84
2023/10/07 11:57:06;;;;;;;12.88;3.97;;;19.30;99.90;;;;;;6236244;22;20358;-83
2023/10/07 11:59:36;;;;;;;13.50;3.90;;;19.20;99.90;;;;;;6237900;22;20021;-83
2023/10/07 12:02:09;;;;;;;13.73;4.47;;;19.40;99.90;;;;;;6212003;22;20078;-83
2023/10/07 12:04:47;;;;;;;12.95;3.55;;;19.60;99.90;;;;;;6237910;22;20113;-84
2023/10/07 12:07:16;;;;;;;8.98;3.42;;;19.50;99.90;;;;;;6211876;22;20038;-84
2023/10/07 12:09:49;;;;;;;9.90;3.33;;;19.30;99.90;;;;;;6212095;22;20011;-83
2023/10/07 12:12:17;;;;;;;10.98;3.60;;;19.40;99.90;;;;;;6211857;22;20026;-83
2023/10/07 12:14:43;;;;;;;8.88;2.92;;;19.60;99.90;;;;;;6212516;22;20413;-84
2023/10/07 12:17:08;;;;;;;14.10;3.97;;;19.60;99.90;;;;;;6237890;22;20019;-83
2023/10/07 12:19:36;;;;;;;10.65;3.70;;;19.70;99.90;;;;;;6212788;22;20012;-83
2023/10/07 12:22:05;;;;;;;11.30;3.70;;;19.70;99.90;;;;;;6236929;22;20023;-83
2023/10/07 12:24:34;;;;;;;10.13;3.63;;;19.40;99.90;;;;;;6237443;22;20404;-84
2023/10/07 12:27:00;;;;;;;10.57;4.13;;;19.40;99.90;;;;;;6211709;22;20174;-84
2023/10/07 12:29:27;;;;;;;11.63;3.17;;;19.20;99.90;;;;;;6238589;22;20018;-84
2023/10/07 12:31:53;;;;;;;8.40;3.50;;;19.10;99.90;;;;;;6211929;22;20019;-83
2023/10/07 12:34:20;;;;;;;11.73;3.88;;;19.00;99.90;;;;;;6237851;22;20016;-83
2023/10/07 12:36:52;;;;;;;10.63;3.70;;;19.00;99.90;;;;;;6212168;22;20016;-83
2023/10/07 12:39:21;;;;;;;13.65;3.97;;;19.10;99.90;;;;;;6238185;22;20008;-83
2023/10/07 12:41:47;;;;;;;9.02;4.03;;;19.20;99.90;;;;;;6237129;22;20014;-83
2023/10/07 12:44:13;;;;;;;11.63;3.45;;;19.10;99.90;;;;;;6237558;22;20457;-83
2023/10/07 12:46:40;;;;;;;11.77;3.90;;;19.10;99.90;;;;;;6210581;22;20132;-82
2023/10/07 12:49:09;;;;;;;9.18;3.67;;;19.10;99.90;;;;;;6237482;22;20011;-83
2023/10/07 12:51:37;;;;;;;15.68;4.65;;;19.10;99.90;;;;;;6212578;22;20050;-83
2023/10/07 12:54:03;;;;;;;11.02;3.95;;;19.10;99.90;;;;;;6237196;22;20015;-83
2023/10/07 12:56:31;;;;;;;10.48;4.00;;;19.00;99.90;;;;;;6237439;22;20046;-83
2023/10/07 12:58:57;;;;;;;10.38;3.58;;;19.00;99.90;;;;;;6211749;22;20015;-83
2023/10/07 13:01:22;;;;;;;11.95;4.28;;;18.90;99.90;;;;;;6237967;22;20086;-84
2023/10/07 13:03:52;;;;;;;9.95;3.78;;;18.90;99.90;;;;;;6212189;22;20475;-83
2023/10/07 13:06:19;;;;;;;12.15;4.22;;;18.80;99.90;;;;;;6212766;22;20286;-83
2023/10/07 13:08:45;;;;;;;13.98;3.95;;;18.90;99.90;;;;;;6236610;22;20441;-83
2023/10/07 13:11:11;;;;;;;8.10;3.78;;;18.80;99.90;;;;;;6237063;22;20016;-83
2023/10/07 13:13:41;;;;;;;11.35;4.07;;;18.90;99.90;;;;;;6236441;22;20019;-83
2023/10/07 13:16:09;;;;;;;12.27;4.10;;;18.80;99.90;;;;;;6236924;22;20016;-83
2023/10/07 13:18:35;;;;;;;14.25;4.30;;;18.80;99.90;;;;;;6236753;22;20023;-83
2023/10/07 13:21:07;;;;;;;9.00;3.78;;;18.80;99.90;;;;;;6213228;22;20380;-84
2023/10/07 13:23:38;;;;;;;14.20;3.83;;;18.70;99.90;;;;;;6210728;22;20103;-83
2023/10/07 13:26:11;;;;;;;13.40;3.70;;;18.70;99.90;;;;;;6237360;22;20122;-83
2023/10/07 13:28:40;;;;;;;9.27;4.28;;;18.60;99.90;;;;;;6211005;22;20360;-83
2023/10/07 13:31:09;;;;;;;10.15;3.83;;;18.50;99.90;;;;;;6236808;22;20011;-83
2023/10/07 13:33:38;;;;;;;7.97;3.75;;;18.60;99.90;;;;;;6236956;22;20482;-83
2023/10/07 13:36:06;;;;;;;10.05;4.00;;;18.50;99.90;;;;;;6211710;22;20027;-83
2023/10/07 13:38:32;;;;;;;9.60;3.90;;;18.50;99.90;;;;;;6210142;22;20020;-83
2023/10/07 13:40:58;;;;;;;10.30;4.10;;;18.40;99.90;;;;;;6211470;22;20012;-84
2023/10/07 13:43:26;;;;;;;10.70;3.75;;;18.40;99.90;;;;;;6209841;22;20066;-82
2023/10/07 13:45:53;;;;;;;14.25;4.20;;;18.40;99.90;;;;;;6236245;22;20336;-83
2023/10/07 13:48:18;;;;;;;14.30;3.92;;;18.50;99.90;;;;;;6235891;22;20018;-83
2023/10/07 13:50:46;;;;;;;7.93;3.67;;;18.40;99.90;;;;;;6211369;22;20329;-83
2023/10/07 13:53:12;;;;;;;10.10;3.78;;;18.40;99.90;;;;;;6235547;22;20118;-84
2023/10/07 13:58:09;;;;;;;10.77;4.20;;;18.30;99.90;;;;;;6235434;22;20028;-83
2023/10/07 14:00:36;;;;;;;8.48;3.60;;;18.30;99.90;;;;;;6236654;22;20686;-83